Flight Track Log - Related Links

Times and Time Zones

All times are in EDT time to prevent confusion due to time zone crossing. See the SWA622 flight status page for this flight to view local times or setup timezone preferences in your user account.

Time Position Orientation Groundspeed Altitude Reporting Facility
EDT Latitude Longitude Course Direction KTS MPH feet Rate Location/Type
12:18PM 33.9500 -118.4500 22° Northeast 173 199 1,200  Level Southern California TRACON
12:19PM 33.9436 -118.4897 259° West 202 232 2,100 2,364 Climbing Los Angeles Center
12:20PM 33.9383 -118.5681 265° West 216 249 5,100 2,565 Climbing Los Angeles Center
12:21PM 33.9447 -118.6525 275° West 268 308 7,400 1,887 Climbing Los Angeles Center
12:22PM 34.0136 -118.7069 327° Northwest 276 318 9,000 1,887 Climbing Los Angeles Center
12:23PM 34.0878 -118.6717 21° North 297 342 11,300 1,968 Climbing Los Angeles Center
12:24PM 34.1642 -118.6179 22° Northeast  Level FlightAware Approximate
12:24PM 34.1725 -118.6267 24° Northeast 313 360 13,100  Level Los Angeles Center
12:25PM 34.2739 -118.6150 North 363 418 15,400 2,226 Climbing Los Angeles Center
12:26PM 34.3747 -118.6503 344° North 383 441 17,700 2,177 Climbing Los Angeles Center
12:27PM 34.4736 -118.6967 339° North 383 441 19,900 1,935 Climbing Los Angeles Center
12:28PM 34.5769 -118.7483 338° Northwest 401 461 21,700 1,935 Climbing Los Angeles Center
12:29PM 34.6814 -118.8019 337° Northwest 409 471 23,900 1,887 Climbing Los Angeles Center
12:30PM 34.8117 -118.8681 337° Northwest 420 483 25,600 1,645 Climbing Los Angeles Center
12:31PM 34.9242 -118.9167 340° North 432 497 27,300 1,488 Climbing Los Angeles Center
12:32PM 35.0400 -118.9683 340° North 442 509 28,700 1,536 Climbing Los Angeles Center
12:33PM 35.1578 -119.0203 340° North 450 518 30,500 1,694 Climbing Los Angeles Center
12:34PM 35.2722 -119.0711 340° North 443 510 32,200 1,500 Climbing Los Angeles Center
12:35PM 35.4067 -119.1325 340° North 434 499 33,600 871 Climbing Los Angeles Center
12:37PM 35.5194 -119.1844 339° North 432 497 34,000 194 Climbing Los Angeles Center
12:38PM 35.6228 -119.2486 333° Northwest 423 487 34,000  Level Los Angeles Center
12:39PM 35.7300 -119.3125 334° Northwest 426 490 34,000  Level Los Angeles Center
12:40PM 35.8375 -119.3769 334° Northwest 429 494 34,000  Level Los Angeles Center
12:40PM 35.9011 -119.4167 333° Northwest 431 496 34,000  Level Oakland Center
12:41PM 36.0275 -119.4908 335° Northwest 426 490 34,000  Level Oakland Center
12:42PM 36.1328 -119.5553 334° Northwest 423 487 34,000  Level Oakland Center
12:43PM 36.2389 -119.6186 334° Northwest 426 490 34,000  Level Oakland Center
12:44PM 36.3447 -119.6833 334° Northwest 425 489 34,000  Level Oakland Center
12:45PM 36.4517 -119.7475 334° Northwest 428 493 34,000  Level Oakland Center
12:46PM 36.5578 -119.8136 333° Northwest 428 493 34,000  Level Oakland Center
12:47PM 36.6631 -119.8792 333° Northwest 426 490 34,000  Level Oakland Center
12:48PM 36.7700 -119.9436 334° Northwest 427 491 34,000  Level Oakland Center
12:49PM 36.8975 -120.0242 333° Northwest 428 493 34,000 -49 Level Oakland Center
12:50PM 37.0044 -120.0919 333° Northwest 432 497 33,900 -1,122 Descending Oakland Center
12:51PM 37.0983 -120.1486 334° Northwest 427 491 31,700 -2,311 Descending Oakland Center
12:52PM 37.2036 -120.2144 334° Northwest 422 486 29,200 -2,656 Descending Oakland Center
12:53PM 37.3278 -120.2906 334° Northwest 414 476 26,300 -2,585 Descending Oakland Center
12:55PM 37.4297 -120.3569 333° Northwest 413 475 23,900 -1,951 Descending Oakland Center
12:56PM 37.5131 -120.4389 322° Northwest 381 438 22,300 -1,475 Descending Oakland Center
12:57PM 37.5914 -120.5167 322° Northwest 362 417 20,900 -1,268 Descending Oakland Center
12:58PM 37.6689 -120.5942 322° Northwest 355 409 19,700 -1,171 Descending Oakland Center
12:59PM 37.7469 -120.6733 321° Northwest 359 413 18,500 -1,377 Descending Oakland Center
01:00PM 37.8175 -120.7444 321° Northwest 329 379 16,900 -1,512 Descending Oakland Center
01:01PM 37.8839 -120.8125 321° Northwest 312 359 15,400 -1,707 Descending Oakland Center
01:02PM 37.9489 -120.8786 321° Northwest 300 345 13,400 -1,967 Descending Oakland Center
01:03PM 38.0156 -120.9444 322° Northwest 303 349 11,400 -1,659 Descending Oakland Center
01:04PM 38.0889 -121.0239 320° Northwest 287 330 10,000 -1,366 Descending Oakland Center
01:05PM 38.1347 -121.0942 310° West 262 302 8,600 -976 Descending Oakland Center
01:06PM 38.1822 -121.1647 311° West 260 299 8,000 -476 Descending Oakland Center
01:07PM 38.2333 -121.2333 313° West 254 292 7,600 -692 Descending Northern Cal TRACON
01:08PM 38.2833 -121.3167 307° West 255 293 6,500 -1,000 Descending Northern Cal TRACON
01:09PM 38.3167 -121.3667 310° West 251 289 5,600 -1,000 Descending Northern Cal TRACON
01:10PM 38.3667 -121.4333 314° West 252 290 4,600 -835 Descending Northern Cal TRACON
01:11PM 38.4167 -121.5000 314° West 255 293 4,000 -350 Descending Northern Cal TRACON
01:12PM 38.4667 -121.5667 314° West 245 282 3,900 -528 Descending Northern Cal TRACON
01:13PM 38.5167 -121.6000 332° Northwest 227 261 2,900 -835 Descending Northern Cal TRACON
01:14PM 38.5667 -121.6000 360° North 202 232 2,300 -835 Descending Northern Cal TRACON
01:15PM 38.6167 -121.6000 360° North 179 206 1,300 -900 Descending Northern Cal TRACON
01:16PM 38.6667 -121.6000 360° North 137 158 500 -800 Descending Northern Cal TRACON
01:18PM 38.6833 -121.5833 46° Northeast  Level FlightAware Approximate
01:25PM 38.6954 -121.5908 46° Northeast  Level Estimated
01:26PM 38.6954 -121.5908 46° Northeast  Level Estimated

Login

Don't have an account? Register now (free) for customized features, flight alerts, and more!